sensor_id;sensor_type;location;lat;lon;timestamp;P1;durP1;ratioP1;P2;durP2;ratioP2
12165;SDS011;6146;48.128;11.476;2023-09-08T00:01:52;8.67;;;7.23;;
12165;SDS011;6146;48.128;11.476;2023-09-08T00:04:18;9.43;;;7.80;;
12165;SDS011;6146;48.128;11.476;2023-09-08T00:06:45;7.90;;;7.10;;
12165;SDS011;6146;48.128;11.476;2023-09-08T00:09:11;9.10;;;7.30;;
12165;SDS011;6146;48.128;11.476;2023-09-08T00:11:37;8.73;;;7.93;;
12165;SDS011;6146;48.128;11.476;2023-09-08T00:14:02;8.33;;;7.53;;
12165;SDS011;6146;48.128;11.476;2023-09-08T00:16:28;10.50;;;8.47;;
12165;SDS011;6146;48.128;11.476;2023-09-08T00:18:54;8.93;;;7.70;;
12165;SDS011;6146;48.128;11.476;2023-09-08T00:21:20;8.73;;;7.83;;
12165;SDS011;6146;48.128;11.476;2023-09-08T00:23:45;9.00;;;8.10;;
12165;SDS011;6146;48.128;11.476;2023-09-08T00:26:11;9.20;;;8.30;;
12165;SDS011;6146;48.128;11.476;2023-09-08T00:28:36;9.53;;;8.27;;
12165;SDS011;6146;48.128;11.476;2023-09-08T00:31:02;9.37;;;7.47;;
12165;SDS011;6146;48.128;11.476;2023-09-08T00:33:27;8.63;;;7.80;;
12165;SDS011;6146;48.128;11.476;2023-09-08T00:35:53;8.93;;;8.03;;
12165;SDS011;6146;48.128;11.476;2023-09-08T00:38:22;8.93;;;8.07;;
12165;SDS011;6146;48.128;11.476;2023-09-08T00:40:47;8.00;;;7.30;;
12165;SDS011;6146;48.128;11.476;2023-09-08T00:43:13;8.27;;;7.47;;
12165;SDS011;6146;48.128;11.476;2023-09-08T00:45:40;8.03;;;7.30;;
12165;SDS011;6146;48.128;11.476;2023-09-08T00:48:07;8.00;;;7.13;;
12165;SDS011;6146;48.128;11.476;2023-09-08T00:50:34;8.67;;;7.77;;
12165;SDS011;6146;48.128;11.476;2023-09-08T00:53:01;7.93;;;7.13;;
12165;SDS011;6146;48.128;11.476;2023-09-08T00:55:28;8.43;;;7.63;;
12165;SDS011;6146;48.128;11.476;2023-09-08T00:57:54;7.40;;;6.80;;
12165;SDS011;6146;48.128;11.476;2023-09-08T01:00:19;8.60;;;7.80;;
12165;SDS011;6146;48.128;11.476;2023-09-08T01:02:45;8.63;;;7.40;;
12165;SDS011;6146;48.128;11.476;2023-09-08T01:05:11;10.07;;;7.53;;
12165;SDS011;6146;48.128;11.476;2023-09-08T01:07:37;7.53;;;6.73;;
12165;SDS011;6146;48.128;11.476;2023-09-08T01:10:03;9.67;;;7.67;;
12165;SDS011;6146;48.128;11.476;2023-09-08T01:12:31;8.80;;;7.90;;
12165;SDS011;6146;48.128;11.476;2023-09-08T01:14:58;8.77;;;7.67;;
12165;SDS011;6146;48.128;11.476;2023-09-08T01:17:23;8.47;;;6.77;;
12165;SDS011;6146;48.128;11.476;2023-09-08T01:19:50;7.67;;;6.97;;
12165;SDS011;6146;48.128;11.476;2023-09-08T01:27:35;7.87;;;6.70;;
12165;SDS011;6146;48.128;11.476;2023-09-08T01:30:03;8.03;;;7.23;;
12165;SDS011;6146;48.128;11.476;2023-09-08T01:32:30;8.63;;;7.47;;
12165;SDS011;6146;48.128;11.476;2023-09-08T01:34:57;8.30;;;7.50;;
12165;SDS011;6146;48.128;11.476;2023-09-08T01:37:24;8.07;;;7.27;;
12165;SDS011;6146;48.128;11.476;2023-09-08T01:39:50;7.73;;;6.97;;
12165;SDS011;6146;48.128;11.476;2023-09-08T01:42:15;8.40;;;7.60;;
12165;SDS011;6146;48.128;11.476;2023-09-08T01:44:41;7.93;;;6.77;;
12165;SDS011;6146;48.128;11.476;2023-09-08T01:47:06;8.60;;;6.90;;
12165;SDS011;6146;48.128;11.476;2023-09-08T01:49:32;10.07;;;7.43;;
12165;SDS011;6146;48.128;11.476;2023-09-08T01:51:57;8.63;;;7.17;;
12165;SDS011;6146;48.128;11.476;2023-09-08T01:54:23;7.03;;;6.33;;
12165;SDS011;6146;48.128;11.476;2023-09-08T01:56:49;8.27;;;7.43;;
12165;SDS011;6146;48.128;11.476;2023-09-08T01:59:16;8.90;;;7.17;;
12165;SDS011;6146;48.128;11.476;2023-09-08T02:01:41;7.50;;;6.77;;
12165;SDS011;6146;48.128;11.476;2023-09-08T02:04:07;8.80;;;7.70;;
12165;SDS011;6146;48.128;11.476;2023-09-08T02:06:33;7.60;;;6.83;;
12165;SDS011;6146;48.128;11.476;2023-09-08T02:08:58;8.90;;;6.80;;
12165;SDS011;6146;48.128;11.476;2023-09-08T02:11:24;7.33;;;6.57;;
12165;SDS011;6146;48.128;11.476;2023-09-08T02:13:49;7.90;;;7.20;;
12165;SDS011;6146;48.128;11.476;2023-09-08T02:16:15;7.43;;;6.73;;
12165;SDS011;6146;48.128;11.476;2023-09-08T02:18:41;8.67;;;6.90;;
12165;SDS011;6146;48.128;11.476;2023-09-08T02:21:07;8.60;;;6.87;;
12165;SDS011;6146;48.128;11.476;2023-09-08T02:23:33;7.63;;;6.93;;
12165;SDS011;6146;48.128;11.476;2023-09-08T02:25:58;7.77;;;6.97;;
12165;SDS011;6146;48.128;11.476;2023-09-08T02:28:24;7.97;;;7.23;;
12165;SDS011;6146;48.128;11.476;2023-09-08T02:30:50;8.17;;;7.27;;
12165;SDS011;6146;48.128;11.476;2023-09-08T02:33:15;8.03;;;7.23;;
12165;SDS011;6146;48.128;11.476;2023-09-08T02:35:41;7.97;;;6.50;;
12165;SDS011;6146;48.128;11.476;2023-09-08T02:38:06;7.80;;;6.97;;
12165;SDS011;6146;48.128;11.476;2023-09-08T02:40:32;8.13;;;7.03;;
12165;SDS011;6146;48.128;11.476;2023-09-08T02:42:59;8.33;;;7.53;;
12165;SDS011;6146;48.128;11.476;2023-09-08T02:45:28;7.87;;;7.17;;
12165;SDS011;6146;48.128;11.476;2023-09-08T02:47:54;7.80;;;6.57;;
12165;SDS011;6146;48.128;11.476;2023-09-08T02:50:20;7.90;;;7.20;;
12165;SDS011;6146;48.128;11.476;2023-09-08T02:52:46;7.77;;;7.03;;
12165;SDS011;6146;48.128;11.476;2023-09-08T02:55:12;8.13;;;7.30;;
12165;SDS011;6146;48.128;11.476;2023-09-08T02:57:38;8.00;;;7.20;;
12165;SDS011;6146;48.128;11.476;2023-09-08T03:00:04;7.13;;;6.53;;
12165;SDS011;6146;48.128;11.476;2023-09-08T03:02:32;7.50;;;6.70;;
12165;SDS011;6146;48.128;11.476;2023-09-08T03:04:58;9.13;;;7.73;;
12165;SDS011;6146;48.128;11.476;2023-09-08T03:07:23;8.43;;;7.10;;
12165;SDS011;6146;48.128;11.476;2023-09-08T03:09:49;8.50;;;7.40;;
12165;SDS011;6146;48.128;11.476;2023-09-08T03:12:14;10.03;;;7.40;;
12165;SDS011;6146;48.128;11.476;2023-09-08T03:14:40;7.60;;;6.77;;
12165;SDS011;6146;48.128;11.476;2023-09-08T03:17:05;7.50;;;6.67;;
12165;SDS011;6146;48.128;11.476;2023-09-08T03:19:31;7.63;;;6.93;;
12165;SDS011;6146;48.128;11.476;2023-09-08T03:21:57;7.07;;;6.10;;
12165;SDS011;6146;48.128;11.476;2023-09-08T03:24:22;6.87;;;6.27;;
12165;SDS011;6146;48.128;11.476;2023-09-08T03:26:48;7.60;;;6.90;;
12165;SDS011;6146;48.128;11.476;2023-09-08T03:29:13;8.07;;;7.17;;
12165;SDS011;6146;48.128;11.476;2023-09-08T03:31:39;6.90;;;6.30;;
12165;SDS011;6146;48.128;11.476;2023-09-08T03:34:04;9.13;;;7.40;;
12165;SDS011;6146;48.128;11.476;2023-09-08T03:36:30;9.37;;;7.00;;
12165;SDS011;6146;48.128;11.476;2023-09-08T03:39:00;7.27;;;6.57;;
12165;SDS011;6146;48.128;11.476;2023-09-08T03:41:26;7.87;;;6.83;;
12165;SDS011;6146;48.128;11.476;2023-09-08T03:43:52;7.97;;;7.17;;
12165;SDS011;6146;48.128;11.476;2023-09-08T03:46:17;8.37;;;6.73;;
12165;SDS011;6146;48.128;11.476;2023-09-08T03:48:43;7.63;;;6.87;;
12165;SDS011;6146;48.128;11.476;2023-09-08T03:51:08;7.87;;;7.03;;
12165;SDS011;6146;48.128;11.476;2023-09-08T03:53:34;8.00;;;6.93;;
12165;SDS011;6146;48.128;11.476;2023-09-08T03:55:59;7.30;;;6.60;;
12165;SDS011;6146;48.128;11.476;2023-09-08T03:58:25;8.20;;;7.30;;
12165;SDS011;6146;48.128;11.476;2023-09-08T04:00:50;7.43;;;6.70;;
12165;SDS011;6146;48.128;11.476;2023-09-08T04:03:16;7.50;;;6.80;;
12165;SDS011;6146;48.128;11.476;2023-09-08T04:05:42;7.97;;;7.20;;
12165;SDS011;6146;48.128;11.476;2023-09-08T04:08:07;7.67;;;6.87;;
12165;SDS011;6146;48.128;11.476;2023-09-08T04:10:33;7.90;;;6.93;;
12165;SDS011;6146;48.128;11.476;2023-09-08T04:12:58;7.67;;;6.70;;
12165;SDS011;6146;48.128;11.476;2023-09-08T04:15:24;7.73;;;6.90;;
12165;SDS011;6146;48.128;11.476;2023-09-08T04:17:49;7.20;;;6.50;;
12165;SDS011;6146;48.128;11.476;2023-09-08T04:20:15;7.20;;;6.50;;
12165;SDS011;6146;48.128;11.476;2023-09-08T04:22:41;7.93;;;7.13;;
12165;SDS011;6146;48.128;11.476;2023-09-08T04:25:07;7.20;;;6.53;;
12165;SDS011;6146;48.128;11.476;2023-09-08T04:27:32;7.83;;;7.03;;
12165;SDS011;6146;48.128;11.476;2023-09-08T04:30:00;8.17;;;7.37;;
12165;SDS011;6146;48.128;11.476;2023-09-08T04:32:25;8.57;;;7.77;;
12165;SDS011;6146;48.128;11.476;2023-09-08T04:34:51;9.83;;;7.43;;
12165;SDS011;6146;48.128;11.476;2023-09-08T04:37:16;9.60;;;7.57;;
12165;SDS011;6146;48.128;11.476;2023-09-08T04:39:42;8.10;;;7.30;;
12165;SDS011;6146;48.128;11.476;2023-09-08T04:42:08;8.10;;;7.30;;
12165;SDS011;6146;48.128;11.476;2023-09-08T04:44:34;8.20;;;7.33;;
12165;SDS011;6146;48.128;11.476;2023-09-08T04:46:59;8.50;;;7.70;;
12165;SDS011;6146;48.128;11.476;2023-09-08T04:49:25;8.97;;;8.07;;
12165;SDS011;6146;48.128;11.476;2023-09-08T04:51:51;8.53;;;7.40;;
12165;SDS011;6146;48.128;11.476;2023-09-08T04:54:16;8.70;;;7.87;;
12165;SDS011;6146;48.128;11.476;2023-09-08T04:56:42;9.33;;;7.30;;
12165;SDS011;6146;48.128;11.476;2023-09-08T04:59:08;10.90;;;9.63;;
12165;SDS011;6146;48.128;11.476;2023-09-08T05:01:33;8.33;;;7.53;;
12165;SDS011;6146;48.128;11.476;2023-09-08T05:04:01;9.77;;;8.43;;
12165;SDS011;6146;48.128;11.476;2023-09-08T05:06:27;9.73;;;8.70;;
12165;SDS011;6146;48.128;11.476;2023-09-08T05:08:53;8.40;;;7.60;;
12165;SDS011;6146;48.128;11.476;2023-09-08T05:11:18;10.20;;;8.40;;
12165;SDS011;6146;48.128;11.476;2023-09-08T05:13:44;9.10;;;8.20;;
12165;SDS011;6146;48.128;11.476;2023-09-08T05:16:11;10.23;;;8.67;;
12165;SDS011;6146;48.128;11.476;2023-09-08T05:18:40;10.33;;;8.23;;
12165;SDS011;6146;48.128;11.476;2023-09-08T05:21:07;11.03;;;9.00;;
12165;SDS011;6146;48.128;11.476;2023-09-08T05:23:33;9.77;;;8.77;;
12165;SDS011;6146;48.128;11.476;2023-09-08T05:25:59;9.93;;;8.57;;
12165;SDS011;6146;48.128;11.476;2023-09-08T05:28:25;8.90;;;8.00;;
12165;SDS011;6146;48.128;11.476;2023-09-08T05:30:51;10.13;;;8.03;;
12165;SDS011;6146;48.128;11.476;2023-09-08T05:33:17;10.07;;;7.97;;
12165;SDS011;6146;48.128;11.476;2023-09-08T05:35:44;9.87;;;8.90;;
12165;SDS011;6146;48.128;11.476;2023-09-08T05:38:10;9.33;;;8.40;;
12165;SDS011;6146;48.128;11.476;2023-09-08T05:40:36;8.63;;;7.83;;
12165;SDS011;6146;48.128;11.476;2023-09-08T05:43:01;9.77;;;8.77;;
12165;SDS011;6146;48.128;11.476;2023-09-08T05:45:27;8.97;;;8.10;;
12165;SDS011;6146;48.128;11.476;2023-09-08T05:47:52;9.37;;;8.37;;
12165;SDS011;6146;48.128;11.476;2023-09-08T05:50:18;9.23;;;8.30;;
12165;SDS011;6146;48.128;11.476;2023-09-08T05:52:44;8.67;;;7.80;;
12165;SDS011;6146;48.128;11.476;2023-09-08T05:55:10;8.17;;;7.37;;
12165;SDS011;6146;48.128;11.476;2023-09-08T05:57:35;9.93;;;7.93;;
12165;SDS011;6146;48.128;11.476;2023-09-08T06:00:04;9.70;;;7.27;;
12165;SDS011;6146;48.128;11.476;2023-09-08T06:02:30;9.80;;;7.90;;
12165;SDS011;6146;48.128;11.476;2023-09-08T06:04:56;8.03;;;7.30;;
12165;SDS011;6146;48.128;11.476;2023-09-08T06:07:22;7.63;;;6.43;;
12165;SDS011;6146;48.128;11.476;2023-09-08T06:09:47;6.63;;;5.93;;
12165;SDS011;6146;48.128;11.476;2023-09-08T06:12:13;8.37;;;7.00;;
12165;SDS011;6146;48.128;11.476;2023-09-08T06:14:38;9.70;;;6.90;;
12165;SDS011;6146;48.128;11.476;2023-09-08T06:17:04;9.47;;;7.23;;
12165;SDS011;6146;48.128;11.476;2023-09-08T06:19:29;7.77;;;6.60;;
12165;SDS011;6146;48.128;11.476;2023-09-08T06:21:55;10.13;;;7.80;;
12165;SDS011;6146;48.128;11.476;2023-09-08T06:24:20;8.43;;;7.60;;
12165;SDS011;6146;48.128;11.476;2023-09-08T06:26:46;8.80;;;7.90;;
12165;SDS011;6146;48.128;11.476;2023-09-08T06:29:12;8.90;;;8.10;;
12165;SDS011;6146;48.128;11.476;2023-09-08T06:31:37;9.43;;;8.53;;
12165;SDS011;6146;48.128;11.476;2023-09-08T06:34:03;11.10;;;8.90;;
12165;SDS011;6146;48.128;11.476;2023-09-08T06:36:28;10.67;;;8.97;;
12165;SDS011;6146;48.128;11.476;2023-09-08T06:38:54;10.33;;;9.37;;
12165;SDS011;6146;48.128;11.476;2023-09-08T06:41:20;9.40;;;8.60;;
12165;SDS011;6146;48.128;11.476;2023-09-08T06:43:45;12.20;;;9.00;;
12165;SDS011;6146;48.128;11.476;2023-09-08T06:46:11;9.30;;;8.40;;
12165;SDS011;6146;48.128;11.476;2023-09-08T06:48:36;9.73;;;8.50;;
12165;SDS011;6146;48.128;11.476;2023-09-08T06:51:02;10.77;;;9.67;;
12165;SDS011;6146;48.128;11.476;2023-09-08T06:53:27;11.83;;;9.93;;
12165;SDS011;6146;48.128;11.476;2023-09-08T06:55:53;11.13;;;10.03;;
12165;SDS011;6146;48.128;11.476;2023-09-08T06:58:19;10.80;;;9.73;;
12165;SDS011;6146;48.128;11.476;2023-09-08T07:00:44;10.30;;;9.20;;
12165;SDS011;6146;48.128;11.476;2023-09-08T07:03:10;9.37;;;8.47;;
12165;SDS011;6146;48.128;11.476;2023-09-08T07:05:35;10.23;;;8.37;;
12165;SDS011;6146;48.128;11.476;2023-09-08T07:08:01;9.87;;;8.00;;
12165;SDS011;6146;48.128;11.476;2023-09-08T07:10:27;8.13;;;7.33;;
12165;SDS011;6146;48.128;11.476;2023-09-08T07:12:52;6.93;;;6.28;;
12165;SDS011;6146;48.128;11.476;2023-09-08T07:15:18;7.60;;;6.90;;
12165;SDS011;6146;48.128;11.476;2023-09-08T07:17:43;6.80;;;6.15;;
12165;SDS011;6146;48.128;11.476;2023-09-08T07:20:09;6.82;;;5.82;;
12165;SDS011;6146;48.128;11.476;2023-09-08T07:22:35;6.57;;;5.97;;
12165;SDS011;6146;48.128;11.476;2023-09-08T07:25:00;7.68;;;6.90;;
12165;SDS011;6146;48.128;11.476;2023-09-08T07:27:26;6.25;;;5.75;;
12165;SDS011;6146;48.128;11.476;2023-09-08T07:29:52;6.32;;;5.35;;
12165;SDS011;6146;48.128;11.476;2023-09-08T07:32:17;6.53;;;5.53;;
12165;SDS011;6146;48.128;11.476;2023-09-08T07:34:43;6.95;;;6.38;;
12165;SDS011;6146;48.128;11.476;2023-09-08T07:37:09;5.80;;;5.40;;
12165;SDS011;6146;48.128;11.476;2023-09-08T07:39:35;5.95;;;5.47;;
12165;SDS011;6146;48.128;11.476;2023-09-08T07:42:01;5.20;;;4.68;;
12165;SDS011;6146;48.128;11.476;2023-09-08T07:44:27;5.70;;;5.20;;
12165;SDS011;6146;48.128;11.476;2023-09-08T07:46:52;5.53;;;4.97;;
12165;SDS011;6146;48.128;11.476;2023-09-08T07:49:20;6.78;;;6.15;;
12165;SDS011;6146;48.128;11.476;2023-09-08T07:51:45;5.50;;;4.65;;
12165;SDS011;6146;48.128;11.476;2023-09-08T07:54:11;5.88;;;5.38;;
12165;SDS011;6146;48.128;11.476;2023-09-08T07:56:37;5.60;;;5.10;;
12165;SDS011;6146;48.128;11.476;2023-09-08T07:59:05;8.30;;;4.80;;
12165;SDS011;6146;48.128;11.476;2023-09-08T08:01:31;7.15;;;5.78;;
12165;SDS011;6146;48.128;11.476;2023-09-08T08:03:57;4.97;;;4.35;;
12165;SDS011;6146;48.128;11.476;2023-09-08T08:06:23;5.43;;;5.03;;
12165;SDS011;6146;48.128;11.476;2023-09-08T08:08:49;4.97;;;4.57;;
12165;SDS011;6146;48.128;11.476;2023-09-08T08:11:15;5.32;;;4.93;;
12165;SDS011;6146;48.128;11.476;2023-09-08T08:13:45;6.70;;;4.75;;
12165;SDS011;6146;48.128;11.476;2023-09-08T08:16:11;5.03;;;4.50;;
12165;SDS011;6146;48.128;11.476;2023-09-08T08:18:36;7.55;;;5.13;;
12165;SDS011;6146;48.128;11.476;2023-09-08T08:21:02;5.80;;;5.18;;
12165;SDS011;6146;48.128;11.476;2023-09-08T08:23:28;4.90;;;4.50;;
12165;SDS011;6146;48.128;11.476;2023-09-08T08:25:58;5.10;;;4.70;;
12165;SDS011;6146;48.128;11.476;2023-09-08T08:28:24;5.75;;;4.93;;
12165;SDS011;6146;48.128;11.476;2023-09-08T08:30:50;5.70;;;5.20;;
12165;SDS011;6146;48.128;11.476;2023-09-08T08:33:16;5.53;;;4.93;;
12165;SDS011;6146;48.128;11.476;2023-09-08T08:35:48;6.72;;;4.93;;
12165;SDS011;6146;48.128;11.476;2023-09-08T08:38:15;7.45;;;5.20;;
12165;SDS011;6146;48.128;11.476;2023-09-08T08:40:40;5.15;;;4.75;;
12165;SDS011;6146;48.128;11.476;2023-09-08T08:43:06;6.85;;;5.38;;
12165;SDS011;6146;48.128;11.476;2023-09-08T08:45:32;5.20;;;4.70;;
12165;SDS011;6146;48.128;11.476;2023-09-08T08:47:58;5.30;;;4.85;;
12165;SDS011;6146;48.128;11.476;2023-09-08T08:50:26;5.80;;;5.38;;
12165;SDS011;6146;48.128;11.476;2023-09-08T08:52:51;5.60;;;4.50;;
12165;SDS011;6146;48.128;11.476;2023-09-08T08:55:17;5.65;;;4.45;;
12165;SDS011;6146;48.128;11.476;2023-09-08T08:57:43;5.07;;;4.55;;
12165;SDS011;6146;48.128;11.476;2023-09-08T09:00:12;4.88;;;4.53;;
12165;SDS011;6146;48.128;11.476;2023-09-08T09:02:41;4.90;;;4.50;;
12165;SDS011;6146;48.128;11.476;2023-09-08T09:05:10;6.55;;;5.35;;
12165;SDS011;6146;48.128;11.476;2023-09-08T09:07:38;5.05;;;4.13;;
12165;SDS011;6146;48.128;11.476;2023-09-08T09:10:07;4.95;;;4.55;;
12165;SDS011;6146;48.128;11.476;2023-09-08T09:12:33;5.03;;;4.47;;
12165;SDS011;6146;48.128;11.476;2023-09-08T09:15:01;5.25;;;4.75;;
12165;SDS011;6146;48.128;11.476;2023-09-08T09:17:29;4.88;;;4.30;;
12165;SDS011;6146;48.128;11.476;2023-09-08T09:22:40;6.45;;;5.22;;
12165;SDS011;6146;48.128;11.476;2023-09-08T09:25:06;5.35;;;4.85;;
12165;SDS011;6146;48.128;11.476;2023-09-08T09:27:32;4.93;;;4.50;;
12165;SDS011;6146;48.128;11.476;2023-09-08T09:30:03;6.00;;;5.13;;
12165;SDS011;6146;48.128;11.476;2023-09-08T09:32:30;5.75;;;5.15;;
12165;SDS011;6146;48.128;11.476;2023-09-08T09:34:56;6.95;;;4.72;;
12165;SDS011;6146;48.128;11.476;2023-09-08T09:37:22;5.15;;;4.72;;
12165;SDS011;6146;48.128;11.476;2023-09-08T09:39:52;6.97;;;5.30;;
12165;SDS011;6146;48.128;11.476;2023-09-08T09:42:18;5.43;;;4.20;;
12165;SDS011;6146;48.128;11.476;2023-09-08T09:44:48;5.25;;;4.65;;
12165;SDS011;6146;48.128;11.476;2023-09-08T09:47:16;6.65;;;4.80;;
12165;SDS011;6146;48.128;11.476;2023-09-08T09:49:42;5.00;;;4.60;;
12165;SDS011;6146;48.128;11.476;2023-09-08T09:52:11;4.88;;;4.22;;
12165;SDS011;6146;48.128;11.476;2023-09-08T09:54:43;5.38;;;4.60;;
12165;SDS011;6146;48.128;11.476;2023-09-08T09:57:11;4.72;;;4.32;;
12165;SDS011;6146;48.128;11.476;2023-09-08T09:59:40;4.63;;;4.07;;
12165;SDS011;6146;48.128;11.476;2023-09-08T10:02:07;5.55;;;4.72;;
12165;SDS011;6146;48.128;11.476;2023-09-08T10:04:39;4.25;;;3.85;;
12165;SDS011;6146;48.128;11.476;2023-09-08T10:07:06;5.93;;;4.60;;
12165;SDS011;6146;48.128;11.476;2023-09-08T10:09:32;4.38;;;3.97;;
12165;SDS011;6146;48.128;11.476;2023-09-08T10:11:59;5.45;;;4.55;;
12165;SDS011;6146;48.128;11.476;2023-09-08T10:14:28;6.20;;;4.63;;
12165;SDS011;6146;48.128;11.476;2023-09-08T10:16:56;4.88;;;4.40;;
12165;SDS011;6146;48.128;11.476;2023-09-08T10:19:24;4.90;;;4.20;;
12165;SDS011;6146;48.128;11.476;2023-09-08T10:21:51;4.40;;;3.97;;
12165;SDS011;6146;48.128;11.476;2023-09-08T10:24:24;4.07;;;3.72;;
12165;SDS011;6146;48.128;11.476;2023-09-08T10:26:56;5.53;;;3.50;;
12165;SDS011;6146;48.128;11.476;2023-09-08T10:29:28;4.40;;;3.80;;
12165;SDS011;6146;48.128;11.476;2023-09-08T10:31:55;3.83;;;3.53;;
12165;SDS011;6146;48.128;11.476;2023-09-08T10:34:22;4.70;;;3.60;;
12165;SDS011;6146;48.128;11.476;2023-09-08T10:36:49;5.30;;;3.95;;
12165;SDS011;6146;48.128;11.476;2023-09-08T10:47:12;5.40;;;3.60;;
12165;SDS011;6146;48.128;11.476;2023-09-08T10:49:38;4.68;;;3.60;;
12165;SDS011;6146;48.128;11.476;2023-09-08T10:52:09;5.38;;;3.97;;
12165;SDS011;6146;48.128;11.476;2023-09-08T10:54:47;3.63;;;3.33;;
12165;SDS011;6146;48.128;11.476;2023-09-08T10:57:15;4.45;;;3.78;;
12165;SDS011;6146;48.128;11.476;2023-09-08T11:00:01;6.00;;;4.00;;
12165;SDS011;6146;48.128;11.476;2023-09-08T11:02:40;4.45;;;3.90;;
12165;SDS011;6146;48.128;11.476;2023-09-08T11:05:11;5.47;;;3.80;;
12165;SDS011;6146;48.128;11.476;2023-09-08T11:07:39;5.45;;;4.35;;
12165;SDS011;6146;48.128;11.476;2023-09-08T11:10:06;4.72;;;3.53;;
12165;SDS011;6146;48.128;11.476;2023-09-08T11:12:32;4.45;;;4.05;;
12165;SDS011;6146;48.128;11.476;2023-09-08T11:14:59;4.20;;;3.35;;
12165;SDS011;6146;48.128;11.476;2023-09-08T11:17:28;4.13;;;3.72;;
12165;SDS011;6146;48.128;11.476;2023-09-08T11:19:53;5.43;;;4.07;;
12165;SDS011;6146;48.128;11.476;2023-09-08T11:22:21;4.47;;;3.92;;
12165;SDS011;6146;48.128;11.476;2023-09-08T11:24:51;4.20;;;3.80;;
12165;SDS011;6146;48.128;11.476;2023-09-08T11:27:18;6.30;;;4.07;;
12165;SDS011;6146;48.128;11.476;2023-09-08T11:29:44;4.35;;;3.95;;
12165;SDS011;6146;48.128;11.476;2023-09-08T11:32:10;4.38;;;3.97;;
12165;SDS011;6146;48.128;11.476;2023-09-08T11:34:36;3.63;;;3.30;;
12165;SDS011;6146;48.128;11.476;2023-09-08T11:37:07;4.75;;;4.03;;
12165;SDS011;6146;48.128;11.476;2023-09-08T11:39:43;3.72;;;3.42;;
12165;SDS011;6146;48.128;11.476;2023-09-08T11:42:10;4.00;;;3.60;;
12165;SDS011;6146;48.128;11.476;2023-09-08T11:44:37;4.35;;;3.72;;
12165;SDS011;6146;48.128;11.476;2023-09-08T11:47:04;4.22;;;3.28;;
12165;SDS011;6146;48.128;11.476;2023-09-08T11:49:35;3.70;;;3.40;;
12165;SDS011;6146;48.128;11.476;2023-09-08T11:52:02;4.07;;;3.67;;
12165;SDS011;6146;48.128;11.476;2023-09-08T11:54:28;4.50;;;4.10;;
12165;SDS011;6146;48.128;11.476;2023-09-08T11:56:56;4.32;;;3.92;;
12165;SDS011;6146;48.128;11.476;2023-09-08T11:59:23;3.90;;;3.60;;
12165;SDS011;6146;48.128;11.476;2023-09-08T12:01:49;4.03;;;3.53;;
12165;SDS011;6146;48.128;11.476;2023-09-08T12:04:18;4.20;;;3.80;;
12165;SDS011;6146;48.128;11.476;2023-09-08T12:06:51;4.15;;;3.65;;
12165;SDS011;6146;48.128;11.476;2023-09-08T12:09:17;4.03;;;3.60;;
12165;SDS011;6146;48.128;11.476;2023-09-08T12:11:45;4.55;;;4.05;;
12165;SDS011;6146;48.128;11.476;2023-09-08T12:14:11;3.70;;;3.40;;
12165;SDS011;6146;48.128;11.476;2023-09-08T12:16:38;4.35;;;3.90;;
12165;SDS011;6146;48.128;11.476;2023-09-08T12:19:05;4.15;;;3.85;;
12165;SDS011;6146;48.128;11.476;2023-09-08T12:21:31;3.80;;;3.50;;
12165;SDS011;6146;48.128;11.476;2023-09-08T12:24:00;4.75;;;4.00;;
12165;SDS011;6146;48.128;11.476;2023-09-08T12:26:25;4.03;;;3.70;;
12165;SDS011;6146;48.128;11.476;2023-09-08T12:28:52;4.32;;;3.75;;
12165;SDS011;6146;48.128;11.476;2023-09-08T12:31:17;4.18;;;3.75;;
12165;SDS011;6146;48.128;11.476;2023-09-08T12:33:43;4.43;;;3.78;;
12165;SDS011;6146;48.128;11.476;2023-09-08T12:36:10;3.97;;;3.58;;
12165;SDS011;6146;48.128;11.476;2023-09-08T12:38:37;4.38;;;4.00;;
12165;SDS011;6146;48.128;11.476;2023-09-08T12:41:03;4.40;;;3.72;;
12165;SDS011;6146;48.128;11.476;2023-09-08T12:43:29;4.47;;;4.05;;
12165;SDS011;6146;48.128;11.476;2023-09-08T12:45:55;4.60;;;4.20;;
12165;SDS011;6146;48.128;11.476;2023-09-08T12:48:21;4.22;;;3.80;;
12165;SDS011;6146;48.128;11.476;2023-09-08T12:50:47;3.95;;;3.60;;
12165;SDS011;6146;48.128;11.476;2023-09-08T12:53:13;4.45;;;4.15;;
12165;SDS011;6146;48.128;11.476;2023-09-08T12:55:39;4.70;;;4.30;;
12165;SDS011;6146;48.128;11.476;2023-09-08T12:58:05;4.43;;;4.03;;
12165;SDS011;6146;48.128;11.476;2023-09-08T13:00:30;5.32;;;4.82;;
12165;SDS011;6146;48.128;11.476;2023-09-08T13:02:56;5.25;;;4.75;;
12165;SDS011;6146;48.128;11.476;2023-09-08T13:05:21;5.07;;;4.68;;
12165;SDS011;6146;48.128;11.476;2023-09-08T13:07:47;5.40;;;4.90;;
12165;SDS011;6146;48.128;11.476;2023-09-08T13:10:12;5.93;;;5.20;;
12165;SDS011;6146;48.128;11.476;2023-09-08T13:12:38;5.75;;;5.25;;
12165;SDS011;6146;48.128;11.476;2023-09-08T13:15:03;5.57;;;5.05;;
12165;SDS011;6146;48.128;11.476;2023-09-08T13:17:29;6.28;;;5.45;;
12165;SDS011;6146;48.128;11.476;2023-09-08T13:19:55;5.85;;;5.25;;
12165;SDS011;6146;48.128;11.476;2023-09-08T13:22:21;5.50;;;5.00;;
12165;SDS011;6146;48.128;11.476;2023-09-08T13:24:47;5.63;;;5.00;;
12165;SDS011;6146;48.128;11.476;2023-09-08T13:27:13;5.63;;;5.13;;
12165;SDS011;6146;48.128;11.476;2023-09-08T13:29:40;6.65;;;5.05;;
12165;SDS011;6146;48.128;11.476;2023-09-08T13:32:06;5.40;;;5.00;;
12165;SDS011;6146;48.128;11.476;2023-09-08T13:34:31;5.65;;;5.25;;
12165;SDS011;6146;48.128;11.476;2023-09-08T13:36:57;6.93;;;5.30;;
12165;SDS011;6146;48.128;11.476;2023-09-08T13:39:23;5.82;;;5.25;;
12165;SDS011;6146;48.128;11.476;2023-09-08T13:41:52;6.05;;;5.45;;
12165;SDS011;6146;48.128;11.476;2023-09-08T13:44:19;5.32;;;4.93;;
12165;SDS011;6146;48.128;11.476;2023-09-08T13:46:46;6.38;;;5.70;;
12165;SDS011;6146;48.128;11.476;2023-09-08T13:49:12;5.78;;;5.28;;
12165;SDS011;6146;48.128;11.476;2023-09-08T13:51:39;6.80;;;5.57;;
12165;SDS011;6146;48.128;11.476;2023-09-08T13:54:04;5.55;;;5.00;;
12165;SDS011;6146;48.128;11.476;2023-09-08T13:56:30;5.35;;;4.95;;
12165;SDS011;6146;48.128;11.476;2023-09-08T13:58:56;5.75;;;5.03;;
12165;SDS011;6146;48.128;11.476;2023-09-08T14:01:21;6.65;;;5.50;;
12165;SDS011;6146;48.128;11.476;2023-09-08T14:03:47;5.65;;;4.80;;
12165;SDS011;6146;48.128;11.476;2023-09-08T14:06:16;6.55;;;5.38;;
12165;SDS011;6146;48.128;11.476;2023-09-08T14:08:45;5.88;;;5.38;;
12165;SDS011;6146;48.128;11.476;2023-09-08T14:11:11;5.38;;;4.88;;
12165;SDS011;6146;48.128;11.476;2023-09-08T14:13:38;6.45;;;5.85;;
12165;SDS011;6146;48.128;11.476;2023-09-08T14:16:03;5.47;;;5.03;;
12165;SDS011;6146;48.128;11.476;2023-09-08T14:18:29;5.97;;;5.30;;
12165;SDS011;6146;48.128;11.476;2023-09-08T14:20:55;6.00;;;5.45;;
12165;SDS011;6146;48.128;11.476;2023-09-08T14:23:21;5.55;;;5.05;;
12165;SDS011;6146;48.128;11.476;2023-09-08T14:25:46;6.20;;;5.60;;
12165;SDS011;6146;48.128;11.476;2023-09-08T14:28:12;5.60;;;5.10;;
12165;SDS011;6146;48.128;11.476;2023-09-08T14:30:37;5.75;;;5.15;;
12165;SDS011;6146;48.128;11.476;2023-09-08T14:33:05;5.60;;;5.10;;
12165;SDS011;6146;48.128;11.476;2023-09-08T14:35:31;5.55;;;5.05;;
12165;SDS011;6146;48.128;11.476;2023-09-08T14:37:57;5.80;;;5.30;;
12165;SDS011;6146;48.128;11.476;2023-09-08T14:40:23;7.25;;;5.45;;
12165;SDS011;6146;48.128;11.476;2023-09-08T14:42:49;7.27;;;5.03;;
12165;SDS011;6146;48.128;11.476;2023-09-08T14:45:14;6.05;;;5.45;;
12165;SDS011;6146;48.128;11.476;2023-09-08T14:47:40;6.00;;;5.40;;
12165;SDS011;6146;48.128;11.476;2023-09-08T14:50:05;6.47;;;5.87;;
12165;SDS011;6146;48.128;11.476;2023-09-08T14:52:31;7.03;;;6.33;;
12165;SDS011;6146;48.128;11.476;2023-09-08T14:54:57;6.80;;;6.13;;
12165;SDS011;6146;48.128;11.476;2023-09-08T14:57:22;8.87;;;8.07;;
12165;SDS011;6146;48.128;11.476;2023-09-08T14:59:48;13.37;;;8.67;;